Time;durP1;ratioP1;P1;durP2;ratioP2;P2;SDS_P1;SDS_P2;PMS_P1;PMS_P2;Temp;Humidity;BMP_temperature;BMP_pressure;BME280_temperature;BME280_humidity;BME280_pressure;Samples;Min_cycle;Max_cycle;Signal;HPM_P1;HPM_P2
2023/05/04 00:00:46;;;;;;;14.43;7.20;;;;;;;-143.48;70.40;118439.88;5038048;28;20087;-67
2023/05/04 00:03:12;;;;;;;11.27;7.15;;;;;;;-143.48;69.76;118439.88;5055961;28;20079;-67
2023/05/04 00:05:37;;;;;;;13.40;6.90;;;;;;;-143.48;70.25;118439.88;5055945;28;20048;-66
2023/05/04 00:08:02;;;;;;;9.52;7.05;;;;;;;-143.48;70.68;118439.88;5055936;28;20108;-66
2023/05/04 00:10:28;;;;;;;13.35;6.65;;;;;;;-143.48;70.39;118439.88;5037978;28;20028;-66
2023/05/04 00:12:53;;;;;;;10.68;6.80;;;;;;;-143.48;70.56;118439.88;5055570;28;20013;-66
2023/05/04 00:15:18;;;;;;;11.48;6.65;;;;;;;-143.48;71.00;118439.88;5055274;28;20404;-66
2023/05/04 00:17:44;;;;;;;10.00;7.00;;;;;;;-143.48;71.81;118439.88;5037796;28;20563;-67
2023/05/04 00:20:10;;;;;;;14.18;7.20;;;;;;;-143.48;71.39;118439.88;5037633;28;20116;-67
2023/05/04 00:22:35;;;;;;;12.25;7.03;;;;;;;-143.48;71.29;118439.88;5055481;28;20024;-67
2023/05/04 00:25:01;;;;;;;13.13;7.38;;;;;;;-143.48;71.74;118439.88;5055568;28;20029;-67
2023/05/04 00:27:26;;;;;;;11.20;6.90;;;;;;;-143.48;71.33;118439.88;5037598;28;20108;-66
2023/05/04 00:29:51;;;;;;;11.15;6.90;;;;;;;-143.48;72.18;118439.88;5055442;28;20033;-66
2023/05/04 00:32:16;;;;;;;15.70;7.20;;;;;;;-143.48;72.67;118439.88;5037489;28;20021;-66
2023/05/04 00:34:42;;;;;;;12.00;7.13;;;;;;;-143.48;72.38;118439.88;5055531;28;20013;-67
2023/05/04 00:37:07;;;;;;;12.80;6.68;;;;;;;-143.48;71.66;118439.88;5037394;28;20032;-67
2023/05/04 00:39:34;;;;;;;15.77;7.25;;;;;;;-143.48;72.40;118439.88;5055233;28;20025;-66
2023/05/04 00:41:59;;;;;;;11.82;7.00;;;;;;;-143.48;71.63;118439.88;5055190;28;20028;-67
2023/05/04 00:44:25;;;;;;;10.68;7.10;;;;;;;-143.48;72.63;118439.88;5055085;28;20476;-66
2023/05/04 00:46:51;;;;;;;16.02;6.82;;;;;;;-143.48;72.47;118439.88;5037267;28;20056;-66
2023/05/04 00:49:17;;;;;;;11.75;7.28;;;;;;;-143.48;73.08;118439.88;5037273;28;20047;-66
2023/05/04 00:51:43;;;;;;;12.38;7.35;;;;;;;-143.48;73.14;118439.88;5055206;28;20060;-66
2023/05/04 00:54:08;;;;;;;11.18;6.70;;;;;;;-143.48;72.85;118439.88;5055294;28;20024;-65
2023/05/04 00:56:39;;;;;;;9.40;6.57;;;;;;;-143.48;73.32;118439.88;5055027;28;20102;-65
2023/05/04 00:59:05;;;;;;;9.55;6.97;;;;;;;-143.48;74.10;118439.88;5037116;28;20025;-67
2023/05/04 01:01:30;;;;;;;12.23;7.30;;;;;;;-143.48;73.50;118439.88;5036790;28;20087;-67
2023/05/04 01:03:56;;;;;;;12.00;7.40;;;;;;;-143.48;73.74;118439.88;5054730;28;20036;-66
2023/05/04 01:06:27;;;;;;;10.52;7.03;;;;;;;-143.48;73.25;118439.88;5054770;28;20028;-67
2023/05/04 01:09:09;;;;;;;24.73;7.40;;;;;;;-143.48;72.79;118439.88;5054760;28;20039;-66
2023/05/04 01:11:47;;;;;;;10.55;5.90;;;;;;;-143.48;72.76;118439.88;5054719;28;20029;-66
2023/05/04 01:14:13;;;;;;;13.10;6.82;;;;;;;-143.48;72.82;118439.88;5054588;28;20025;-66
2023/05/04 01:16:38;;;;;;;13.65;6.82;;;;;;;-143.48;73.48;118439.88;5054594;28;20067;-65
2023/05/04 01:19:04;;;;;;;16.30;7.22;;;;;;;-143.48;72.93;118439.88;5036543;28;20033;-66
2023/05/04 01:21:30;;;;;;;10.00;7.00;;;;;;;-143.48;72.29;118439.88;5054370;28;20104;-66
2023/05/04 01:23:55;;;;;;;10.13;6.50;;;;;;;-143.48;72.65;118439.88;5054210;28;20092;-66
2023/05/04 01:26:31;;;;;;;9.38;6.55;;;;;;;-143.48;72.59;118439.88;5053298;28;20029;-67
2023/05/04 01:29:17;;;;;;;11.15;6.13;;;;;;;-143.48;73.34;118439.88;5054267;28;20017;-66
2023/05/04 01:31:44;;;;;;;11.65;6.47;;;;;;;-143.48;73.78;118439.88;5036529;28;20025;-66
2023/05/04 01:34:11;;;;;;;8.82;6.07;;;;;;;-143.48;73.43;118439.88;5036349;28;20021;-68
2023/05/04 01:36:38;;;;;;;13.20;6.45;;;;;;;-143.48;73.37;118439.88;5054228;28;20029;-67
2023/05/04 01:39:03;;;;;;;14.32;7.10;;;;;;;-143.48;73.23;118439.88;5035874;28;20028;-67
2023/05/04 01:41:29;;;;;;;13.35;6.68;;;;;;;-143.48;74.03;118439.88;5053997;28;20033;-65
2023/05/04 01:43:55;;;;;;;10.13;6.32;;;;;;;-143.48;73.35;118439.88;5053660;28;20388;-66
2023/05/04 01:46:21;;;;;;;14.10;6.68;;;;;;;-143.48;73.28;118439.88;5053465;28;20136;-67
2023/05/04 01:48:46;;;;;;;11.23;6.72;;;;;;;-143.48;73.84;118439.88;5053565;28;20410;-67
2023/05/04 01:51:11;;;;;;;13.43;6.50;;;;;;;-143.48;73.85;118439.88;5053695;28;20036;-67
2023/05/04 01:53:36;;;;;;;13.57;6.32;;;;;;;-143.48;74.05;118439.88;5053990;28;20025;-67
2023/05/04 01:56:02;;;;;;;10.60;6.35;;;;;;;-143.48;73.96;118439.88;5035954;28;20503;-67
2023/05/04 01:58:27;;;;;;;12.48;6.68;;;;;;;-143.48;74.12;118439.88;5053678;28;20095;-66
2023/05/04 02:00:53;;;;;;;9.88;6.18;;;;;;;-143.48;74.40;118439.88;5053800;28;20430;-66
2023/05/04 02:03:18;;;;;;;11.95;6.50;;;;;;;-143.48;73.53;118439.88;5035582;28;20025;-67
2023/05/04 02:05:43;;;;;;;11.80;5.88;;;;;;;-143.48;74.09;118439.88;5053814;28;20017;-67
2023/05/04 02:08:09;;;;;;;13.27;6.18;;;;;;;-143.48;74.37;118439.88;5053525;28;20116;-67
2023/05/04 02:10:34;;;;;;;11.73;6.50;;;;;;;-143.48;75.02;118439.88;5053495;28;20029;-66
2023/05/04 02:12:59;;;;;;;11.52;5.97;;;;;;;-143.48;75.25;118439.88;5053613;28;20017;-66
2023/05/04 02:15:25;;;;;;;10.73;6.20;;;;;;;-143.48;75.43;118439.88;5053546;28;20024;-67
2023/05/04 02:17:50;;;;;;;9.30;5.85;;;;;;;-143.48;75.14;118439.88;5035600;28;20037;-67
2023/05/04 02:20:16;;;;;;;10.35;6.25;;;;;;;-143.48;75.52;118439.88;5053326;28;20116;-65
2023/05/04 02:22:41;;;;;;;10.95;6.03;;;;;;;-143.48;75.60;118439.88;5035526;28;20025;-68
2023/05/04 02:25:07;;;;;;;10.57;6.43;;;;;;;-143.48;75.74;118439.88;5053421;28;20021;-67
2023/05/04 02:27:32;;;;;;;13.32;6.00;;;;;;;-143.48;75.38;118439.88;5053410;28;20025;-68
2023/05/04 02:29:58;;;;;;;12.48;6.32;;;;;;;-143.48;76.32;118439.88;5053140;28;20021;-66
2023/05/04 02:32:24;;;;;;;10.57;6.22;;;;;;;-143.48;76.17;118439.88;5053242;28;20021;-67
2023/05/04 02:34:51;;;;;;;12.55;6.65;;;;;;;-143.48;76.87;118439.88;5053487;28;20492;-67
2023/05/04 02:37:16;;;;;;;8.60;5.97;;;;;;;-143.48;76.56;118439.88;5035077;28;20074;-67
2023/05/04 02:39:41;;;;;;;12.45;6.55;;;;;;;-143.48;76.98;118439.88;5053162;28;20490;-67
2023/05/04 02:42:07;;;;;;;12.02;5.90;;;;;;;-143.48;76.65;118439.88;5053092;28;20025;-66
2023/05/04 02:44:32;;;;;;;13.02;6.50;;;;;;;-143.48;76.91;118439.88;5035211;28;20024;-66
2023/05/04 02:46:57;;;;;;;9.90;5.97;;;;;;;-143.48;76.58;118439.88;5053026;28;20056;-67
2023/05/04 02:49:23;;;;;;;9.88;5.95;;;;;;;-143.48;76.88;118439.88;5053098;28;20491;-67
2023/05/04 02:51:48;;;;;;;10.95;6.00;;;;;;;-143.48;75.77;118439.88;5035123;28;20025;-67
2023/05/04 02:54:13;;;;;;;11.20;6.25;;;;;;;-143.48;76.74;118439.88;5053231;28;20100;-67
2023/05/04 02:56:38;;;;;;;10.43;6.53;;;;;;;-143.48;76.31;118439.88;5053007;28;20025;-66
2023/05/04 02:59:04;;;;;;;11.90;6.40;;;;;;;-143.48;76.59;118439.88;5052939;28;20025;-66
2023/05/04 03:01:29;;;;;;;13.25;6.07;;;;;;;-143.48;76.49;118439.88;5035048;28;20021;-66
2023/05/04 03:03:55;;;;;;;12.60;6.35;;;;;;;-143.48;76.38;118439.88;5052953;28;20100;-66
2023/05/04 03:06:20;;;;;;;10.05;5.63;;;;;;;-143.48;75.80;118439.88;5053117;28;20032;-67
2023/05/04 03:08:45;;;;;;;11.27;6.28;;;;;;;-143.48;75.56;118439.88;5053085;28;20103;-67
2023/05/04 03:11:11;;;;;;;8.48;5.63;;;;;;;-143.48;76.38;118439.88;5053259;28;20098;-66
2023/05/04 03:13:36;;;;;;;13.35;6.72;;;;;;;-143.48;76.14;118439.88;5035249;28;20113;-66
2023/05/04 03:16:02;;;;;;;11.60;6.18;;;;;;;-143.48;76.18;118439.88;5053157;28;20468;-67
2023/05/04 03:18:28;;;;;;;10.52;6.10;;;;;;;-143.48;76.92;118439.88;5053543;28;20021;-67
2023/05/04 03:20:53;;;;;;;13.18;6.28;;;;;;;-143.48;76.96;118439.88;5053838;28;20021;-66
2023/05/04 03:23:18;;;;;;;11.02;6.05;;;;;;;-143.48;76.64;118439.88;5052993;28;20025;-66
2023/05/04 03:25:43;;;;;;;10.88;6.53;;;;;;;-143.48;76.13;118439.88;5034775;28;20055;-66
2023/05/04 03:28:09;;;;;;;10.77;6.45;;;;;;;-143.48;76.09;118439.88;5052785;28;20025;-67
2023/05/04 03:30:35;;;;;;;11.80;6.10;;;;;;;-143.48;76.39;118439.88;5052851;28;20025;-67
2023/05/04 03:33:00;;;;;;;11.07;6.25;;;;;;;-143.48;76.17;118439.88;5052690;28;20488;-67
2023/05/04 03:35:25;;;;;;;12.88;6.25;;;;;;;-143.48;75.77;118439.88;5052387;28;20029;-68
2023/05/04 03:37:51;;;;;;;10.13;6.30;;;;;;;-143.48;76.63;118439.88;5052676;28;20017;-67
2023/05/04 03:40:21;;;;;;;11.90;6.60;;;;;;;-143.48;76.92;118439.88;5052556;28;20040;-66
2023/05/04 03:42:46;;;;;;;10.75;6.60;;;;;;;-143.48;76.93;118439.88;5052491;28;20032;-68
2023/05/04 03:45:11;;;;;;;10.07;6.07;;;;;;;-143.48;76.28;118439.88;5052388;28;20057;-66
2023/05/04 03:47:37;;;;;;;12.82;6.85;;;;;;;-143.48;77.14;118439.88;5052496;28;20017;-67
2023/05/04 03:50:02;;;;;;;12.40;5.78;;;;;;;-143.48;77.04;118439.88;5055461;28;20056;-67
2023/05/04 03:52:27;;;;;;;11.60;6.30;;;;;;;-143.48;77.43;118439.88;5056125;28;20510;-67
2023/05/04 03:54:53;;;;;;;12.48;6.70;;;;;;;-143.48;78.13;118439.88;5056192;28;20098;-67
2023/05/04 03:57:18;;;;;;;14.15;6.32;;;;;;;-143.48;77.91;118439.88;5055986;28;20057;-66
2023/05/04 03:59:43;;;;;;;11.77;6.72;;;;;;;-143.48;77.32;118439.88;5056012;28;20033;-67
2023/05/04 04:02:09;;;;;;;12.95;6.65;;;;;;;-143.48;77.96;118439.88;5055921;28;20107;-67
2023/05/04 04:04:34;;;;;;;11.93;6.45;;;;;;;-143.48;78.19;118439.88;5037955;28;20454;-67
2023/05/04 04:06:59;;;;;;;14.25;6.28;;;;;;;-143.48;78.77;118439.88;5055970;28;20017;-66
2023/05/04 04:09:24;;;;;;;14.70;7.00;;;;;;;-143.48;79.02;118439.88;5055685;28;20082;-67
2023/05/04 04:11:50;;;;;;;10.65;6.47;;;;;;;-143.48;78.40;118439.88;5055890;28;20472;-67
2023/05/04 04:14:15;;;;;;;12.48;6.97;;;;;;;-143.48;77.87;118439.88;5037905;28;20029;-66
2023/05/04 04:16:40;;;;;;;12.07;6.47;;;;;;;-143.48;78.30;118439.88;5037792;28;20110;-66
2023/05/04 04:19:06;;;;;;;14.73;7.03;;;;;;;-143.48;77.96;118439.88;5055645;28;20031;-68
2023/05/04 04:21:31;;;;;;;13.63;6.75;;;;;;;-143.48;77.54;118439.88;5055689;28;20033;-66
2023/05/04 04:23:57;;;;;;;12.77;6.88;;;;;;;-143.48;76.93;118439.88;5055485;28;20392;-68
2023/05/04 04:26:22;;;;;;;10.57;6.53;;;;;;;-143.48;77.36;118439.88;5055483;28;20025;-66
2023/05/04 04:28:49;;;;;;;13.13;7.03;;;;;;;-143.48;77.64;118439.88;5055541;28;20036;-67
2023/05/04 04:31:17;;;;;;;13.45;6.88;;;;;;;-143.48;76.76;118439.88;5037383;28;20017;-67
2023/05/04 04:33:42;;;;;;;13.23;7.35;;;;;;;-143.48;76.75;118439.88;5055433;28;20017;-67
2023/05/04 04:36:09;;;;;;;14.30;6.88;;;;;;;-143.48;76.28;118439.88;5037313;28;20024;-66
2023/05/04 04:38:36;;;;;;;12.85;6.50;;;;;;;-143.48;76.92;118439.88;5055314;28;20059;-67
2023/05/04 04:41:02;;;;;;;10.60;7.15;;;;;;;-143.48;76.91;118439.88;5055344;28;20480;-67
2023/05/04 04:43:27;;;;;;;13.95;7.18;;;;;;;-143.48;77.06;118439.88;5055090;28;20021;-67
2023/05/04 04:45:52;;;;;;;12.82;7.35;;;;;;;-143.48;77.06;118439.88;5037150;28;20045;-66
2023/05/04 04:48:20;;;;;;;13.90;7.20;;;;;;;-143.48;76.88;118439.88;5055187;28;20029;-66
2023/05/04 04:50:46;;;;;;;11.32;6.93;;;;;;;-143.48;77.48;118439.88;5037138;28;20029;-66
2023/05/04 04:53:11;;;;;;;13.43;7.53;;;;;;;-143.48;77.41;118439.88;5055000;28;20025;-66
2023/05/04 04:55:36;;;;;;;15.38;7.15;;;;;;;-143.48;77.33;118439.88;5054937;28;20053;-67
2023/05/04 04:58:02;;;;;;;13.63;6.88;;;;;;;-143.48;76.82;118439.88;5055161;28;20032;-66
2023/05/04 05:00:28;;;;;;;11.27;6.80;;;;;;;-143.48;75.98;118439.88;5054908;28;20029;-67
2023/05/04 05:02:54;;;;;;;13.32;6.80;;;;;;;-143.48;75.56;118439.88;5036871;28;20021;-67
2023/05/04 05:05:19;;;;;;;13.23;7.32;;;;;;;-143.48;75.70;118439.88;5036756;28;20473;-67
2023/05/04 05:07:44;;;;;;;13.60;7.43;;;;;;;-143.48;75.99;118439.88;5037015;28;20025;-67
2023/05/04 05:10:10;;;;;;;15.23;7.22;;;;;;;-143.48;75.85;118439.88;5054703;28;20082;-67
2023/05/04 05:12:35;;;;;;;13.13;7.57;;;;;;;-143.48;75.85;118439.88;5054711;28;20029;-68
2023/05/04 05:15:03;;;;;;;12.00;7.00;;;;;;;-143.48;75.37;118439.88;5054693;28;20032;-68
2023/05/04 05:17:28;;;;;;;14.98;7.80;;;;;;;-143.48;75.28;118439.88;5036611;28;20021;-67
2023/05/04 05:19:53;;;;;;;12.45;7.40;;;;;;;-143.48;73.69;118439.88;5054591;28;20031;-66
2023/05/04 05:22:19;;;;;;;12.32;7.85;;;;;;;-143.48;74.46;118439.88;5054475;28;20025;-67
2023/05/04 05:24:44;;;;;;;9.77;7.18;;;;;;;-143.48;73.85;118439.88;5054568;28;20384;-67
2023/05/04 05:27:10;;;;;;;14.20;8.40;;;;;;;-143.48;73.80;118439.88;5054388;28;20407;-66
2023/05/04 05:29:36;;;;;;;20.20;7.57;;;;;;;-143.48;72.79;118439.88;5054373;28;20033;-66
2023/05/04 05:32:02;;;;;;;11.68;7.43;;;;;;;-143.48;72.40;118439.88;5054352;28;20021;-66
2023/05/04 05:34:27;;;;;;;17.85;7.82;;;;;;;-143.48;72.81;118439.88;5036387;28;20384;-67
2023/05/04 05:36:53;;;;;;;13.23;7.88;;;;;;;-143.48;71.71;118439.88;5054417;28;20017;-67
2023/05/04 05:39:18;;;;;;;11.35;7.38;;;;;;;-143.48;72.05;118439.88;5036377;28;20036;-66
2023/05/04 05:41:43;;;;;;;15.38;7.75;;;;;;;-143.48;72.03;118439.88;5054037;28;20029;-67
2023/05/04 05:44:09;;;;;;;11.23;7.85;;;;;;;-143.48;71.75;118439.88;5054355;28;20036;-67
2023/05/04 05:46:34;;;;;;;16.42;8.05;;;;;;;-143.48;71.87;118439.88;5054148;28;20131;-67
2023/05/04 05:49:00;;;;;;;19.45;8.38;;;;;;;-143.48;72.21;118439.88;5054100;28;20017;-68
2023/05/04 05:51:25;;;;;;;13.85;8.02;;;;;;;-143.48;70.92;118439.88;5054241;28;20028;-68
2023/05/04 05:53:50;;;;;;;14.05;8.32;;;;;;;-143.48;72.03;118439.88;5054112;28;20074;-66
2023/05/04 05:56:16;;;;;;;15.45;8.27;;;;;;;-143.48;70.35;118439.88;5054235;28;20031;-66
2023/05/04 05:58:41;;;;;;;14.95;8.85;;;;;;;-143.48;68.44;118439.88;5036489;28;20033;-67
2023/05/04 06:01:06;;;;;;;14.20;8.43;;;;;;;-143.48;67.68;118439.88;5054413;28;20017;-66
2023/05/04 06:03:32;;;;;;;12.52;7.75;;;;;;;-143.48;63.75;118439.88;5053025;28;20065;-67
2023/05/04 06:05:57;;;;;;;14.68;8.05;;;;;;;-143.48;58.30;118439.88;5052376;28;20021;-67
2023/05/04 06:08:22;;;;;;;14.50;7.80;;;;;;;-143.48;58.74;118439.88;5034290;28;20604;-67
2023/05/04 06:10:49;;;;;;;13.80;7.50;;;;;;;-143.48;56.06;118439.88;5052368;28;20020;-67
2023/05/04 06:13:14;;;;;;;12.23;7.57;;;;;;;-143.48;54.44;118439.88;5052758;28;20092;-68
2023/05/04 06:15:39;;;;;;;10.65;7.32;;;;;;;-143.48;55.55;118439.88;5036207;28;20048;-70
2023/05/04 06:18:05;;;;;;;11.23;7.00;;;;;;;-143.48;55.95;118439.88;5054226;28;20017;-69
2023/05/04 06:20:30;;;;;;;12.02;7.20;;;;;;;-143.48;57.86;118439.88;5057363;28;20395;-70
2023/05/04 06:22:56;;;;;;;12.20;7.90;;;;;;;-143.48;57.62;118439.88;5055691;28;20100;-70
2023/05/04 06:25:21;;;;;;;14.40;7.45;;;;;;;-143.48;58.35;118439.88;5038173;28;20033;-69
2023/05/04 06:27:46;;;;;;;15.98;8.18;;;;;;;-143.48;58.68;118439.88;5056835;28;20032;-69
2023/05/04 06:30:12;;;;;;;13.25;7.90;;;;;;;-143.48;57.19;118439.88;5055391;28;20025;-71
2023/05/04 06:32:38;;;;;;;13.50;7.55;;;;;;;-143.48;55.54;118439.88;5038178;28;20477;-71
2023/05/04 06:35:04;;;;;;;15.80;7.28;;;;;;;-143.48;55.80;118439.88;5054739;28;20071;-67
2023/05/04 06:37:30;;;;;;;13.93;7.60;;;;;;;-143.48;52.44;118439.88;5054406;28;20025;-68
2023/05/04 06:39:55;;;;;;;10.43;7.07;;;;;;;-143.48;52.47;118439.88;5054244;28;20020;-67
2023/05/04 06:42:20;;;;;;;12.40;7.20;;;;;;;-143.48;54.02;118439.88;5054068;28;20050;-68
2023/05/04 06:44:46;;;;;;;13.00;7.22;;;;;;;-143.48;54.23;118439.88;5035843;28;20021;-66
2023/05/04 06:47:11;;;;;;;15.63;7.70;;;;;;;-143.48;55.84;118439.88;5035834;28;20519;-68
2023/05/04 06:49:36;;;;;;;12.43;7.65;;;;;;;-143.48;56.19;118439.88;5035778;28;20097;-67
2023/05/04 06:52:02;;;;;;;12.75;7.97;;;;;;;-143.48;54.52;118439.88;5053427;28;20063;-68
2023/05/04 06:54:28;;;;;;;11.77;7.55;;;;;;;-143.48;52.11;118439.88;5053134;28;20099;-68
2023/05/04 06:56:53;;;;;;;14.27;7.57;;;;;;;-143.48;52.79;118439.88;5053189;28;20017;-67
2023/05/04 06:59:19;;;;;;;9.68;7.40;;;;;;;-143.48;51.55;118439.88;5035446;28;20029;-66
2023/05/04 07:01:48;;;;;;;10.60;7.25;;;;;;;-143.48;51.14;118439.88;5035437;28;20025;-66
2023/05/04 07:04:16;;;;;;;14.35;7.38;;;;;;;-143.48;50.24;118439.88;5052766;28;20021;-68
2023/05/04 07:06:42;;;;;;;13.07;7.05;;;;;;;-143.48;49.61;118439.88;5053007;28;20040;-66
2023/05/04 07:09:07;;;;;;;11.73;6.97;;;;;;;-143.48;49.94;118439.88;5053051;28;20476;-68
2023/05/04 07:11:33;;;;;;;14.27;7.10;;;;;;;-143.48;50.20;118439.88;5052920;28;20021;-68
2023/05/04 07:13:58;;;;;;;10.88;6.53;;;;;;;-143.48;50.61;118439.88;5052781;28;20019;-67
2023/05/04 07:16:25;;;;;;;11.50;7.03;;;;;;;-143.48;48.55;118439.88;5052687;28;20035;-67
2023/05/04 07:18:50;;;;;;;11.88;7.00;;;;;;;-143.48;50.29;118439.88;5052647;28;20029;-68
2023/05/04 07:21:15;;;;;;;14.35;6.88;;;;;;;-143.48;49.59;118439.88;5034867;28;20025;-67
2023/05/04 07:23:41;;;;;;;9.43;6.70;;;;;;;-143.48;47.83;118439.88;5053449;28;20108;-66
2023/05/04 07:26:07;;;;;;;11.35;7.15;;;;;;;-143.48;49.98;118439.88;5056556;28;20542;-67
2023/05/04 07:28:33;;;;;;;10.15;6.70;;;;;;;-143.48;47.85;118439.88;5056643;28;20086;-68
2023/05/04 07:30:58;;;;;;;15.93;6.90;;;;;;;-143.48;46.29;118439.88;5056552;28;20063;-67
2023/05/04 07:33:25;;;;;;;10.35;6.63;;;;;;;-143.48;46.95;118439.88;5038592;28;20063;-67
2023/05/04 07:35:55;;;;;;;8.52;6.32;;;;;;;-143.48;46.21;118439.88;5056485;28;20025;-70
2023/05/04 07:38:21;;;;;;;11.75;7.18;;;;;;;-143.48;48.20;118439.88;5056429;28;20041;-69
2023/05/04 07:40:46;;;;;;;10.90;7.13;;;;;;;-143.48;45.73;118439.88;5038568;28;20028;-71
2023/05/04 07:43:11;;;;;;;13.18;7.10;;;;;;;-143.48;44.67;118439.88;5056282;28;20373;-69
2023/05/04 07:45:36;;;;;;;11.45;6.55;;;;;;;-143.48;46.27;118439.88;5056193;28;20132;-70
2023/05/04 07:48:02;;;;;;;10.63;6.85;;;;;;;-143.48;47.07;118439.88;5056176;28;20063;-69
2023/05/04 07:50:28;;;;;;;16.88;6.50;;;;;;;-143.48;47.35;118439.88;5056274;28;20036;-70
2023/05/04 07:52:53;;;;;;;12.80;6.95;;;;;;;-143.48;47.46;118439.88;5038211;28;20025;-71
2023/05/04 07:55:18;;;;;;;11.07;6.63;;;;;;;-143.48;48.98;118439.88;5038115;28;20029;-69
2023/05/04 07:57:44;;;;;;;11.57;6.93;;;;;;;-143.48;48.41;118439.88;5056209;28;20020;-68
2023/05/04 08:00:09;;;;;;;12.13;6.95;;;;;;;-143.48;47.53;118439.88;5056030;28;20434;-69
2023/05/04 08:02:35;;;;;;;10.55;6.82;;;;;;;-143.48;47.33;118439.88;5038009;28;20436;-71
2023/05/04 08:05:00;;;;;;;11.27;6.95;;;;;;;-143.48;47.95;118439.88;5037930;28;20023;-69
2023/05/04 08:07:25;;;;;;;10.98;6.90;;;;;;;-143.48;47.66;118439.88;5055964;28;20037;-69
2023/05/04 08:09:52;;;;;;;12.10;6.63;;;;;;;-143.48;48.47;118439.88;5055796;28;20480;-69
2023/05/04 08:12:18;;;;;;;11.57;7.10;;;;;;;-143.48;48.19;118439.88;5038314;28;20166;-71
2023/05/04 08:14:47;;;;;;;10.85;6.88;;;;;;;-143.48;47.64;118439.88;5038464;28;20471;-71
2023/05/04 08:17:12;;;;;;;15.75;6.68;;;;;;;-143.48;48.61;118439.88;5055672;28;20025;-72
2023/05/04 08:19:37;;;;;;;12.15;7.07;;;;;;;-143.48;46.96;118439.88;5055665;28;20021;-72
2023/05/04 08:22:03;;;;;;;11.75;7.38;;;;;;;-143.48;47.71;118439.88;5037557;28;20044;-71
2023/05/04 08:24:29;;;;;;;10.23;6.75;;;;;;;-143.48;48.78;118439.88;5038083;28;20013;-71
2023/05/04 08:26:55;;;;;;;9.10;6.55;;;;;;;-143.48;47.92;118439.88;5037802;28;20025;-72
2023/05/04 08:29:21;;;;;;;12.18;7.05;;;;;;;-143.48;48.20;118439.88;5055877;28;20039;-71
2023/05/04 08:31:46;;;;;;;10.98;6.47;;;;;;;-143.48;46.84;118439.88;5037818;28;20071;-70
2023/05/04 08:34:11;;;;;;;12.20;7.03;;;;;;;-143.48;46.11;118439.88;5037062;28;20048;-72
2023/05/04 08:36:37;;;;;;;13.77;6.70;;;;;;;-143.48;46.06;118439.88;5038102;28;20020;-72
2023/05/04 08:39:02;;;;;;;12.57;6.55;;;;;;;-143.48;45.40;118439.88;5037834;28;20032;-73
2023/05/04 08:41:29;;;;;;;9.75;6.90;;;;;;;-143.48;45.78;118439.88;5055888;28;20090;-72
2023/05/04 08:43:54;;;;;;;15.10;6.88;;;;;;;-143.48;45.51;118439.88;5037619;28;20423;-72
2023/05/04 08:46:20;;;;;;;14.02;6.55;;;;;;;-143.48;44.71;118439.88;5055514;28;20056;-71
2023/05/04 08:48:46;;;;;;;10.43;6.47;;;;;;;-143.48;46.00;118439.88;5056446;28;20020;-72
2023/05/04 08:51:12;;;;;;;11.23;6.57;;;;;;;-143.48;44.68;118439.88;5058249;28;20025;-72
2023/05/04 08:53:44;;;;;;;10.63;6.57;;;;;;;-143.48;45.15;118439.88;5055972;28;20025;-72
2023/05/04 08:56:12;;;;;;;10.85;6.40;;;;;;;-143.48;43.44;118439.88;5038002;28;20033;-72
2023/05/04 08:58:47;;;;;;;11.90;6.60;;;;;;;-143.48;44.29;118439.88;5056344;28;20412;-71
2023/05/04 09:01:14;;;;;;;11.40;6.65;;;;;;;-143.48;44.70;118439.88;5055775;28;20032;-73
2023/05/04 09:03:40;;;;;;;12.90;6.28;;;;;;;-143.48;43.55;118439.88;5055016;28;20025;-72
2023/05/04 09:06:07;;;;;;;11.27;6.90;;;;;;;-143.48;44.12;118439.88;5055784;28;20033;-71
2023/05/04 09:08:33;;;;;;;9.68;6.18;;;;;;;-143.48;43.52;118439.88;5054480;28;20024;-71
2023/05/04 09:10:58;;;;;;;11.02;6.35;;;;;;;-143.48;42.76;118439.88;5054489;28;20389;-72
2023/05/04 09:13:23;;;;;;;9.45;6.55;;;;;;;-143.48;43.79;118439.88;5054592;28;20013;-72
2023/05/04 09:15:57;;;;;;;12.68;6.65;;;;;;;-143.48;43.38;118439.88;5036828;28;20039;-72
2023/05/04 09:18:33;;;;;;;11.75;6.63;;;;;;;-143.48;42.30;118439.88;5036920;28;20107;-72
2023/05/04 09:20:59;;;;;;;11.23;6.38;;;;;;;-143.48;41.99;118439.88;5054760;28;20024;-73
2023/05/04 09:23:26;;;;;;;15.90;5.88;;;;;;;-143.48;41.94;118439.88;5055916;28;20092;-71
2023/05/04 09:25:53;;;;;;;10.80;6.13;;;;;;;-143.48;40.66;118439.88;5037467;28;20032;-72
2023/05/04 09:28:32;;;;;;;10.70;6.32;;;;;;;-143.48;41.11;118439.88;5054395;28;20029;-72
2023/05/04 09:30:59;;;;;;;15.13;6.05;;;;;;;-143.48;42.22;118439.88;5036544;28;20400;-71
2023/05/04 09:33:26;;;;;;;11.82;6.80;;;;;;;-143.48;40.91;118439.88;5036571;28;20132;-72
2023/05/04 09:35:51;;;;;;;11.38;6.40;;;;;;;-143.48;41.33;118439.88;5039246;28;20112;-71
2023/05/04 09:38:30;;;;;;;9.07;6.07;;;;;;;-143.48;41.12;118439.88;5057475;28;20056;-72
2023/05/04 09:40:56;;;;;;;10.25;6.50;;;;;;;-143.48;41.58;118439.88;5054731;28;20384;-71
2023/05/04 09:43:23;;;;;;;9.75;6.00;;;;;;;-143.48;40.19;118439.88;5054244;28;20033;-70
2023/05/04 09:45:49;;;;;;;14.35;6.22;;;;;;;-143.48;38.74;118439.88;5036250;28;20061;-72
2023/05/04 09:48:16;;;;;;;9.70;5.70;;;;;;;-143.48;40.60;118439.88;5054022;28;20027;-72
2023/05/04 09:50:47;;;;;;;13.98;6.43;;;;;;;-143.48;38.97;118439.88;5054189;28;20088;-72
2023/05/04 09:53:15;;;;;;;11.07;6.40;;;;;;;-143.48;41.12;118439.88;5054248;28;20023;-71
2023/05/04 09:55:44;;;;;;;12.43;6.75;;;;;;;-143.48;39.98;118439.88;5036461;28;20056;-72
2023/05/04 09:58:11;;;;;;;12.35;6.05;;;;;;;-143.48;39.05;118439.88;5036262;28;20017;-71
2023/05/04 10:00:37;;;;;;;11.20;6.00;;;;;;;-143.48;38.77;118439.88;5054197;28;20361;-73
2023/05/04 10:03:04;;;;;;;11.32;6.30;;;;;;;-143.48;37.98;118439.88;5054153;28;20093;-71
2023/05/04 10:05:29;;;;;;;9.45;5.68;;;;;;;-143.48;37.75;118439.88;5054920;28;20029;-73
2023/05/04 10:07:58;;;;;;;9.88;5.78;;;;;;;-143.48;38.84;118439.88;5036224;28;20116;-72
2023/05/04 10:10:24;;;;;;;10.23;5.80;;;;;;;-143.48;38.92;118439.88;5055031;28;20028;-74
2023/05/04 10:12:49;;;;;;;8.68;5.43;;;;;;;-143.48;37.65;118439.88;5056068;28;20480;-73
2023/05/04 10:15:16;;;;;;;10.15;5.88;;;;;;;-143.48;39.58;118439.88;5054414;28;20028;-73
2023/05/04 10:17:49;;;;;;;8.77;6.00;;;;;;;-143.48;38.61;118439.88;5036625;28;20515;-73
2023/05/04 10:20:44;;;;;;;12.48;5.70;;;;;;;-143.48;38.82;118439.88;5037861;28;20023;-71
2023/05/04 10:23:31;;;;;;;12.68;6.00;;;;;;;-143.48;38.81;118439.88;5054124;28;20036;-72
2023/05/04 10:26:05;;;;;;;13.77;5.60;;;;;;;-143.48;37.96;118439.88;5054732;28;20073;-72
2023/05/04 10:28:33;;;;;;;9.65;5.60;;;;;;;-143.48;40.04;118439.88;5054027;28;20073;-72
2023/05/04 10:30:58;;;;;;;12.25;5.25;;;;;;;-143.48;37.73;118439.88;5054061;28;20594;-72
2023/05/04 10:33:25;;;;;;;11.07;5.20;;;;;;;-143.48;37.37;118439.88;5036268;28;20059;-72
2023/05/04 10:35:51;;;;;;;11.55;5.40;;;;;;;-143.48;37.75;118439.88;5053925;28;20491;-73
2023/05/04 10:38:17;;;;;;;15.10;5.03;;;;;;;-143.48;37.64;118439.88;5054537;28;20029;-71
2023/05/04 10:40:42;;;;;;;14.05;4.93;;;;;;;-143.48;35.58;118439.88;5036057;28;20028;-72
2023/05/04 10:43:10;;;;;;;11.60;5.70;;;;;;;-143.48;36.46;118439.88;5035601;28;20051;-72
2023/05/04 10:45:42;;;;;;;11.82;5.95;;;;;;;-143.48;35.38;118439.88;5054082;28;20040;-72
2023/05/04 10:48:08;;;;;;;10.60;5.20;;;;;;;-143.48;37.17;118439.88;5036152;28;20502;-71
2023/05/04 10:50:59;;;;;;;11.63;5.80;;;;;;;-143.48;37.25;118439.88;5054841;28;20036;-73
2023/05/04 10:53:31;;;;;;;12.55;5.28;;;;;;;-143.48;36.49;118439.88;5049824;28;20072;-72
2023/05/04 10:55:57;;;;;;;11.60;5.38;;;;;;;-143.48;36.73;118439.88;5035660;28;20427;-72
2023/05/04 10:58:28;;;;;;;8.90;5.22;;;;;;;-143.48;36.15;118439.88;5055679;28;20021;-71